Time;durP1;ratioP1;P1;durP2;ratioP2;P2;SDS_P1;SDS_P2;PMS_P1;PMS_P2;Temp;Humidity;BMP_temperature;BMP_pressure;BME280_temperature;BME280_humidity;BME280_pressure;Samples;Min_cycle;Max_cycle;Signal;HPM_P1;HPM_P2
2024/02/04 00:00:14;;;;;;;0.70;0.70;;;;;;;7.33;80.80;99638.81;4972482;28;20038;-92
2024/02/04 00:02:40;;;;;;;0.80;0.80;;;;;;;7.26;81.58;99636.63;4981266;28;20052;-91
2024/02/04 00:05:06;;;;;;;0.80;0.80;;;;;;;7.31;81.36;99629.81;4962753;28;20121;-90
2024/02/04 00:07:32;;;;;;;0.80;0.80;;;;;;;7.37;80.75;99622.19;4952780;28;20038;-91
2024/02/04 00:09:58;;;;;;;0.80;0.80;;;;;;;7.39;80.78;99612.59;4980108;28;20039;-91
2024/02/04 00:12:23;;;;;;;0.80;0.80;;;;;;;7.54;80.37;99617.84;4970049;28;20132;-92
2024/02/04 00:14:49;;;;;;;0.80;0.80;;;;;;;7.54;79.60;99609.88;4963929;28;20023;-91
2024/02/04 00:17:16;;;;;;;0.70;0.70;;;;;;;7.45;80.15;99599.66;4982278;28;20482;-91
2024/02/04 00:19:41;;;;;;;0.90;0.90;;;;;;;7.39;80.84;99601.97;4969279;28;20035;-92
2024/02/04 00:22:07;;;;;;;0.80;0.80;;;;;;;7.42;80.51;99587.94;4968964;28;20149;-92
2024/02/04 00:24:32;;;;;;;0.80;0.80;;;;;;;7.49;79.81;99587.47;4968463;28;20043;-91
2024/02/04 00:26:58;;;;;;;0.70;0.70;;;;;;;7.46;80.07;99593.50;4978316;28;20058;-91
2024/02/04 00:29:24;;;;;;;0.70;0.70;;;;;;;7.54;80.00;99593.03;4990150;28;20081;-92
2024/02/04 00:31:49;;;;;;;0.75;0.75;;;;;;;7.49;79.78;99592.78;4966634;28;20084;-91
2024/02/04 00:34:15;;;;;;;0.80;0.80;;;;;;;7.41;80.54;99591.44;4980755;28;20084;-92
2024/02/04 00:36:40;;;;;;;0.80;0.80;;;;;;;7.52;80.06;99587.66;4998681;28;20823;-91
2024/02/04 00:39:07;;;;;;;0.70;0.70;;;;;;;7.51;80.20;99591.09;4985880;28;20030;-90
2024/02/04 00:41:33;;;;;;;0.80;0.80;;;;;;;7.52;80.07;99586.69;4978517;28;20030;-92
2024/02/04 00:43:59;;;;;;;0.90;0.90;;;;;;;7.62;79.71;99578.44;4965146;28;20069;-93
2024/02/04 00:46:25;;;;;;;0.80;0.80;;;;;;;7.50;79.97;99577.75;4978605;28;20042;-91
2024/02/04 00:48:50;;;;;;;0.70;0.70;;;;;;;7.50;79.80;99591.94;4982014;28;20030;-91
2024/02/04 00:51:19;;;;;;;0.80;0.80;;;;;;;7.41;80.32;99592.34;4969687;28;20066;-91
2024/02/04 00:53:46;;;;;;;0.80;0.80;;;;;;;7.44;80.40;99603.13;4967006;28;20034;-92
2024/02/04 00:56:11;;;;;;;0.80;0.80;;;;;;;7.36;80.79;99608.84;4967153;28;20041;-91
2024/02/04 00:58:38;;;;;;;0.80;0.80;;;;;;;7.55;79.61;99616.09;4978923;28;20693;-93
2024/02/04 01:01:04;;;;;;;0.80;0.80;;;;;;;7.46;79.80;99609.44;4977907;28;20068;-92
2024/02/04 01:03:31;;;;;;;0.80;0.80;;;;;;;7.50;80.06;99602.56;5056389;28;20051;-94
2024/02/04 01:05:56;;;;;;;0.80;0.80;;;;;;;7.51;80.03;99595.50;4984361;28;20072;-91
2024/02/04 01:08:22;;;;;;;0.80;0.80;;;;;;;7.45;79.98;99590.78;4964700;28;20035;-91
2024/02/04 01:10:51;;;;;;;0.80;0.80;;;;;;;7.52;79.63;99592.00;4981093;28;20043;-92
2024/02/04 01:13:16;;;;;;;0.80;0.80;;;;;;;7.36;80.40;99590.25;4979655;28;20031;-91
2024/02/04 01:15:42;;;;;;;0.80;0.80;;;;;;;7.32;80.59;99598.88;4968418;28;20065;-92
2024/02/04 01:18:08;;;;;;;0.77;0.77;;;;;;;7.35;80.26;99599.06;4973001;28;20066;-89
2024/02/04 01:20:34;;;;;;;0.70;0.70;;;;;;;7.20;80.62;99600.03;4999300;28;20101;-91
2024/02/04 01:22:59;;;;;;;0.80;0.80;;;;;;;7.29;80.52;99598.72;4988797;28;20064;-91
2024/02/04 01:25:25;;;;;;;0.80;0.80;;;;;;;7.15;80.97;99604.16;4990144;28;20030;-91
2024/02/04 01:27:50;;;;;;;0.80;0.80;;;;;;;7.19;81.09;99607.91;4976166;28;20054;-92
2024/02/04 01:30:16;;;;;;;0.70;0.70;;;;;;;7.29;80.99;99599.63;4989472;28;20042;-92
2024/02/04 01:32:42;;;;;;;0.70;0.70;;;;;;;7.27;81.11;99595.97;4975202;28;20089;-92
2024/02/04 01:35:08;;;;;;;0.80;0.80;;;;;;;7.16;81.65;99595.38;4985297;28;20049;-92
2024/02/04 01:37:34;;;;;;;0.70;0.70;;;;;;;7.16;81.36;99589.16;4982546;28;20404;-91
2024/02/04 01:39:59;;;;;;;0.70;0.70;;;;;;;7.16;81.59;99592.72;4995502;28;20042;-91
2024/02/04 01:42:25;;;;;;;0.70;0.70;;;;;;;7.27;81.62;99580.03;4994853;28;20110;-90
2024/02/04 01:44:51;;;;;;;0.70;0.70;;;;;;;7.19;81.80;99581.38;4967314;28;20050;-90
2024/02/04 01:47:16;;;;;;;0.70;0.70;;;;;;;7.17;82.22;99577.72;4968473;28;20443;-92
2024/02/04 01:49:43;;;;;;;0.70;0.70;;;;;;;7.12;82.47;99576.53;4970330;28;20025;-91
2024/02/04 01:52:11;;;;;;;0.70;0.70;;;;;;;7.09;82.46;99572.00;4971044;28;20037;-93
2024/02/04 01:54:40;;;;;;;0.70;0.70;;;;;;;7.11;82.80;99572.06;4982306;28;20030;-92
2024/02/04 01:57:06;;;;;;;0.65;0.65;;;;;;;7.15;82.72;99580.28;4970022;28;20404;-91
2024/02/04 01:59:32;;;;;;;0.77;0.77;;;;;;;7.18;82.54;99579.53;4985921;28;20027;-92
2024/02/04 02:01:59;;;;;;;0.70;0.70;;;;;;;7.37;80.61;99574.41;4988025;28;20045;-91
2024/02/04 02:04:25;;;;;;;0.70;0.70;;;;;;;7.24;81.29;99579.91;4972711;28;20027;-91
2024/02/04 02:06:55;;;;;;;0.80;0.80;;;;;;;7.40;80.50;99579.00;4982859;28;20034;-94
2024/02/04 02:09:21;;;;;;;0.70;0.70;;;;;;;7.49;80.18;99581.25;4968342;28;20035;-94
2024/02/04 02:11:59;;;;;;;0.70;0.70;;;;;;;7.37;80.43;99561.13;4979771;28;20040;-95
2024/02/04 02:14:30;;;;;;;0.70;0.70;;;;;;;7.23;80.71;99563.84;4986011;28;20037;-93
2024/02/04 02:17:03;;;;;;;0.70;0.70;;;;;;;7.19;81.12;99566.38;4984913;28;20043;-91
2024/02/04 02:19:41;;;;;;;0.80;0.80;;;;;;;7.19;81.06;99576.06;4978908;28;20451;-92
2024/02/04 02:22:17;;;;;;;0.80;0.80;;;;;;;7.41;80.78;99572.84;4965335;28;20051;-94
2024/02/04 02:24:46;;;;;;;0.80;0.80;;;;;;;7.30;80.65;99572.25;4974009;28;20031;-94
2024/02/04 02:27:11;;;;;;;0.80;0.80;;;;;;;7.36;80.45;99569.94;4982795;28;20051;-94
2024/02/04 02:29:37;;;;;;;0.80;0.80;;;;;;;7.25;80.82;99568.44;4978368;28;20026;-94
2024/02/04 02:32:05;;;;;;;0.80;0.80;;;;;;;7.15;81.55;99568.75;4978329;28;20043;-94
2024/02/04 02:34:31;;;;;;;0.70;0.70;;;;;;;7.13;81.36;99566.00;4984909;28;20038;-91
2024/02/04 02:37:03;;;;;;;0.70;0.70;;;;;;;7.34;80.70;99570.69;4963845;28;20058;-94
2024/02/04 02:39:45;;;;;;;0.80;0.80;;;;;;;7.37;80.55;99576.16;4973781;28;20049;-93
2024/02/04 02:42:12;;;;;;;0.80;0.80;;;;;;;7.20;81.11;99573.50;4970427;28;20041;-91
2024/02/04 02:44:39;;;;;;;0.77;0.77;;;;;;;7.19;80.81;99568.09;4982702;28;20033;-92
2024/02/04 02:47:05;;;;;;;0.80;0.80;;;;;;;7.26;80.49;99567.59;4971303;28;20039;-90
2024/02/04 02:49:31;;;;;;;0.70;0.70;;;;;;;7.31;80.47;99568.78;4968044;28;20424;-93
2024/02/04 02:51:56;;;;;;;0.80;0.80;;;;;;;7.35;79.61;99561.91;4982881;28;20472;-93
2024/02/04 02:54:22;;;;;;;0.70;0.70;;;;;;;7.25;80.41;99570.19;4982314;28;20037;-94
2024/02/04 02:56:47;;;;;;;0.80;0.80;;;;;;;7.26;80.35;99562.31;4977562;28;20034;-92
2024/02/04 02:59:12;;;;;;;0.75;0.75;;;;;;;7.26;80.45;99562.31;4970450;28;20045;-92
2024/02/04 03:01:41;;;;;;;0.80;0.80;;;;;;;7.21;80.45;99566.44;4982376;28;20019;-93
2024/02/04 03:04:07;;;;;;;0.70;0.70;;;;;;;7.24;80.47;99557.75;4992254;28;20030;-93
2024/02/04 03:06:32;;;;;;;0.80;0.80;;;;;;;7.24;79.75;99565.72;4996268;28;20038;-91
2024/02/04 03:08:58;;;;;;;0.80;0.80;;;;;;;7.30;79.03;99564.31;4981876;28;20061;-92
2024/02/04 03:11:23;;;;;;;0.80;0.80;;;;;;;7.40;78.08;99561.31;4993466;28;20376;-93
2024/02/04 03:13:48;;;;;;;0.80;0.80;;;;;;;7.32;78.90;99559.97;4986728;28;20052;-92
2024/02/04 03:16:14;;;;;;;0.80;0.80;;;;;;;7.31;79.11;99560.81;4989986;28;20034;-91
2024/02/04 03:18:41;;;;;;;0.80;0.80;;;;;;;7.36;79.15;99554.00;4976829;28;20537;-92
2024/02/04 03:21:14;;;;;;;0.70;0.70;;;;;;;7.34;79.12;99562.75;4983267;28;20058;-93
2024/02/04 03:23:42;;;;;;;0.70;0.70;;;;;;;7.33;79.58;99561.81;4987310;28;20034;-92
2024/02/04 03:26:09;;;;;;;0.80;0.80;;;;;;;7.38;79.58;99552.38;4984443;28;20088;-92
2024/02/04 03:28:35;;;;;;;0.82;0.82;;;;;;;7.41;79.79;99557.81;4992308;28;20636;-93
2024/02/04 03:31:01;;;;;;;0.80;0.80;;;;;;;7.26;79.89;99551.69;4973607;28;20038;-90
2024/02/04 03:33:26;;;;;;;0.80;0.80;;;;;;;7.31;79.94;99554.59;4965155;28;20039;-90
2024/02/04 03:35:52;;;;;;;0.80;0.80;;;;;;;7.22;80.68;99562.03;4969405;28;20122;-91
2024/02/04 03:38:17;;;;;;;0.77;0.77;;;;;;;7.23;80.45;99561.22;4962199;28;20083;-92
2024/02/04 03:40:46;;;;;;;0.80;0.80;;;;;;;7.29;80.33;99567.78;4981842;28;20027;-91
2024/02/04 03:43:12;;;;;;;0.80;0.80;;;;;;;7.31;80.49;99557.25;4984596;28;20105;-92
2024/02/04 03:45:37;;;;;;;0.70;0.70;;;;;;;7.32;80.33;99565.28;4983029;28;20064;-92
2024/02/04 03:48:03;;;;;;;0.80;0.80;;;;;;;7.29;80.45;99569.53;4968783;28;20039;-92
2024/02/04 03:50:29;;;;;;;0.80;0.80;;;;;;;7.27;80.58;99557.91;4983995;28;20041;-92
2024/02/04 03:52:55;;;;;;;0.80;0.80;;;;;;;7.19;80.85;99560.16;4984281;28;20035;-91
2024/02/04 03:55:23;;;;;;;0.70;0.70;;;;;;;7.25;80.96;99557.81;4984406;28;20032;-92
2024/02/04 03:57:48;;;;;;;0.80;0.80;;;;;;;7.33;80.79;99556.53;4963818;28;20042;-92
2024/02/04 04:00:14;;;;;;;0.77;0.77;;;;;;;7.23;80.67;99555.91;4983630;28;20026;-92
2024/02/04 04:02:41;;;;;;;0.80;0.80;;;;;;;7.19;80.84;99554.84;4969211;28;20515;-92
2024/02/04 04:05:10;;;;;;;0.80;0.80;;;;;;;7.16;80.31;99552.00;4977942;28;21517;-92
2024/02/04 04:07:35;;;;;;;0.80;0.80;;;;;;;7.24;79.95;99565.72;4961211;28;20077;-92
2024/02/04 04:10:01;;;;;;;0.80;0.80;;;;;;;7.20;79.96;99559.31;4966224;28;20054;-91
2024/02/04 04:12:26;;;;;;;0.70;0.70;;;;;;;7.18;79.93;99553.91;4984102;28;20034;-92
2024/02/04 04:14:52;;;;;;;0.80;0.80;;;;;;;7.12;80.44;99553.56;4986429;28;20019;-92
2024/02/04 04:17:18;;;;;;;0.80;0.80;;;;;;;7.07;80.12;99564.75;4992527;28;20036;-92
2024/02/04 04:19:45;;;;;;;0.70;0.70;;;;;;;7.25;79.13;99565.78;4985316;28;20046;-91
2024/02/04 04:22:10;;;;;;;0.80;0.80;;;;;;;7.26;79.19;99570.25;4967385;28;20031;-93
2024/02/04 04:24:35;;;;;;;0.80;0.80;;;;;;;7.23;78.95;99566.50;4984969;28;20034;-93
2024/02/04 04:27:01;;;;;;;0.80;0.80;;;;;;;7.33;78.03;99569.78;4984558;28;20039;-91
2024/02/04 04:29:26;;;;;;;0.77;0.77;;;;;;;7.43;77.41;99574.78;4997654;28;20031;-91
2024/02/04 04:31:52;;;;;;;0.80;0.80;;;;;;;7.42;77.06;99564.03;4984193;28;20403;-91
2024/02/04 04:34:19;;;;;;;0.80;0.80;;;;;;;7.22;77.19;99557.66;4992101;28;20027;-91
2024/02/04 04:36:45;;;;;;;;;;;;;;;7.10;77.82;99559.63;4986875;28;20100;-92
2024/02/04 04:39:10;;;;;;;0.80;0.80;;;;;;;7.04;78.44;99552.25;4998688;28;19918;-91
2024/02/04 04:41:36;;;;;;;0.80;0.80;;;;;;;7.03;78.33;99562.75;4984485;28;20030;-91
2024/02/04 04:44:01;;;;;;;0.80;0.80;;;;;;;7.12;78.29;99564.19;4995518;28;20046;-92
2024/02/04 04:46:27;;;;;;;0.80;0.80;;;;;;;7.09;78.48;99553.41;4982766;28;20022;-91
2024/02/04 04:48:52;;;;;;;0.80;0.80;;;;;;;7.07;78.23;99548.84;4998569;28;20091;-91
2024/02/04 04:51:18;;;;;;;0.70;0.70;;;;;;;7.00;78.46;99558.19;4975794;28;20113;-91
2024/02/04 04:53:43;;;;;;;0.80;0.80;;;;;;;6.95;79.10;99565.00;4976954;28;20451;-91
2024/02/04 04:56:08;;;;;;;0.70;0.70;;;;;;;7.01;78.57;99567.06;4972781;28;20095;-89
2024/02/04 04:58:35;;;;;;;0.80;0.80;;;;;;;6.91;79.23;99570.94;4969288;28;20043;-91
2024/02/04 05:01:00;;;;;;;0.80;0.80;;;;;;;6.88;79.17;99562.81;4977921;28;20057;-92
2024/02/04 05:03:27;;;;;;;0.70;0.70;;;;;;;6.88;79.45;99561.06;4980334;28;20035;-92
2024/02/04 05:05:52;;;;;;;0.77;0.77;;;;;;;6.91;78.85;99563.00;4985112;28;20067;-91
2024/02/04 05:08:17;;;;;;;0.80;0.80;;;;;;;6.93;79.26;99562.22;4976218;28;20038;-93
2024/02/04 05:10:43;;;;;;;0.80;0.80;;;;;;;6.94;78.98;99558.75;4964380;28;20090;-92
2024/02/04 05:13:08;;;;;;;0.70;0.70;;;;;;;6.88;78.88;99563.72;4982564;28;20050;-92
2024/02/04 05:15:34;;;;;;;0.80;0.80;;;;;;;6.90;79.07;99570.03;4982692;28;20042;-92
2024/02/04 05:18:00;;;;;;;0.70;0.70;;;;;;;6.94;79.12;99568.44;4977306;28;20070;-91
2024/02/04 05:20:25;;;;;;;0.70;0.70;;;;;;;6.90;79.18;99559.44;4959428;28;20030;-92
2024/02/04 05:22:51;;;;;;;0.80;0.80;;;;;;;6.97;78.79;99557.13;4980272;28;20034;-92
2024/02/04 05:25:17;;;;;;;0.70;0.70;;;;;;;6.89;79.44;99548.72;4981676;28;20034;-93
2024/02/04 05:27:44;;;;;;;0.80;0.80;;;;;;;6.86;79.71;99559.16;4982675;28;20042;-92
2024/02/04 05:30:11;;;;;;;0.80;0.80;;;;;;;6.84;79.95;99559.06;4974151;28;20057;-93
2024/02/04 05:32:37;;;;;;;0.70;0.70;;;;;;;6.87;79.64;99550.38;4963911;28;20816;-93
2024/02/04 05:35:03;;;;;;;0.80;0.80;;;;;;;6.84;79.78;99547.53;4965525;28;20582;-93
2024/02/04 05:37:30;;;;;;;0.80;0.80;;;;;;;6.79;80.05;99556.97;4976302;28;20113;-93
2024/02/04 05:39:55;;;;;;;0.70;0.70;;;;;;;6.86;79.72;99553.84;4975905;28;20614;-92
2024/02/04 05:42:21;;;;;;;0.70;0.70;;;;;;;6.85;79.96;99573.22;4968538;28;20538;-92
2024/02/04 05:44:46;;;;;;;0.80;0.80;;;;;;;6.86;80.10;99565.38;4965554;28;20070;-93
2024/02/04 05:47:12;;;;;;;0.75;0.75;;;;;;;6.78;80.55;99568.41;4972421;28;20114;-92
2024/02/04 05:49:37;;;;;;;0.80;0.80;;;;;;;6.76;81.20;99568.34;4969652;28;20106;-91
2024/02/04 05:52:03;;;;;;;0.70;0.70;;;;;;;6.61;82.40;99567.41;4977836;28;20034;-91
2024/02/04 05:54:28;;;;;;;0.70;0.70;;;;;;;6.71;82.03;99579.47;4976606;28;20023;-93
2024/02/04 05:56:54;;;;;;;0.70;0.70;;;;;;;6.62;83.19;99587.84;4975796;28;20038;-92
2024/02/04 05:59:19;;;;;;;0.80;0.80;;;;;;;6.48;84.61;99578.16;4980624;28;20092;-92
2024/02/04 06:01:46;;;;;;;0.70;0.70;;;;;;;6.33;86.37;99575.53;4983486;28;20390;-92
2024/02/04 06:04:12;;;;;;;0.80;0.80;;;;;;;6.20;86.56;99581.81;4981672;28;20110;-92
2024/02/04 06:06:38;;;;;;;0.70;0.70;;;;;;;6.13;87.12;99583.19;4980611;28;20035;-90
2024/02/04 06:09:03;;;;;;;0.80;0.80;;;;;;;6.08;87.85;99573.13;4985487;28;20787;-90
2024/02/04 06:11:29;;;;;;;0.80;0.80;;;;;;;6.01;88.57;99570.94;4975472;28;20057;-91
2024/02/04 06:13:54;;;;;;;0.80;0.80;;;;;;;5.99;88.48;99572.56;4975058;28;20033;-91
2024/02/04 06:16:20;;;;;;;0.90;0.90;;;;;;;6.04;88.07;99571.13;4977602;28;20039;-90
2024/02/04 06:18:45;;;;;;;0.80;0.80;;;;;;;5.95;88.24;99573.22;4989532;28;20462;-91
2024/02/04 06:21:11;;;;;;;0.80;0.80;;;;;;;5.95;88.28;99586.47;4974538;28;20459;-91
2024/02/04 06:23:38;;;;;;;0.80;0.80;;;;;;;5.92;89.45;99576.59;4971861;28;20077;-91
2024/02/04 06:26:04;;;;;;;0.90;0.90;;;;;;;5.88;89.85;99579.81;4988402;28;20073;-91
2024/02/04 06:28:30;;;;;;;0.90;0.90;;;;;;;5.93;90.01;99572.19;4974843;28;20068;-91
2024/02/04 06:30:55;;;;;;;0.70;0.70;;;;;;;5.86;90.25;99571.81;4980043;28;20484;-90
2024/02/04 06:33:22;;;;;;;0.90;0.90;;;;;;;5.95;89.86;99565.28;4986092;28;20058;-91
2024/02/04 06:35:49;;;;;;;0.70;0.70;;;;;;;5.97;90.57;99566.28;4975053;28;20030;-92
2024/02/04 06:38:14;;;;;;;0.90;0.90;;;;;;;5.95;90.18;99576.78;4980515;28;20117;-92
2024/02/04 06:40:40;;;;;;;0.70;0.70;;;;;;;5.96;90.40;99586.56;4962190;28;20054;-92
2024/02/04 06:43:06;;;;;;;0.80;0.80;;;;;;;6.10;88.39;99587.38;4978528;28;20054;-92
2024/02/04 06:45:31;;;;;;;0.90;0.90;;;;;;;6.02;89.54;99594.84;4967070;28;20047;-93
2024/02/04 06:47:58;;;;;;;0.90;0.90;;;;;;;5.97;90.04;99593.66;4982851;28;20064;-93
2024/02/04 06:50:23;;;;;;;0.90;0.90;;;;;;;5.97;90.64;99606.91;4977824;28;20047;-91
2024/02/04 06:52:49;;;;;;;0.80;0.80;;;;;;;5.95;90.80;99603.28;4959241;28;20091;-92
2024/02/04 06:55:14;;;;;;;0.90;0.90;;;;;;;6.00;91.31;99599.16;4966590;28;20038;-92
2024/02/04 06:57:40;;;;;;;0.80;0.80;;;;;;;5.97;90.70;99600.72;4960998;28;20058;-91
2024/02/04 07:00:08;;;;;;;0.88;0.88;;;;;;;6.01;90.83;99597.44;4978934;28;20705;-93
2024/02/04 07:02:34;;;;;;;0.80;0.80;;;;;;;5.97;90.70;99600.72;4974236;28;20168;-91
2024/02/04 07:05:00;;;;;;;0.85;0.85;;;;;;;5.94;90.96;99598.81;4983512;28;20045;-91
2024/02/04 07:07:26;;;;;;;0.80;0.80;;;;;;;5.96;91.24;99601.53;4968603;28;20125;-92
2024/02/04 07:09:51;;;;;;;0.80;0.80;;;;;;;5.96;91.66;99589.19;4964666;28;20188;-91
2024/02/04 07:12:17;;;;;;;0.80;0.80;;;;;;;5.93;90.72;99588.09;4979630;28;20049;-92
2024/02/04 07:14:44;;;;;;;0.80;0.80;;;;;;;5.93;90.83;99586.34;4966030;28;20117;-92
2024/02/04 07:17:11;;;;;;;0.80;0.80;;;;;;;5.95;90.73;99582.09;4972525;28;20034;-92
2024/02/04 07:19:37;;;;;;;;;;;;;;;5.95;91.42;99587.38;4982179;28;20042;-93
2024/02/04 07:22:03;;;;;;;0.90;0.90;;;;;;;5.96;91.86;99575.97;4961410;28;19925;-91
2024/02/04 07:24:28;;;;;;;0.80;0.80;;;;;;;5.94;92.01;99579.31;4979205;28;20023;-92
2024/02/04 07:26:53;;;;;;;0.90;0.90;;;;;;;5.91;92.08;99570.38;4977538;28;20780;-89
2024/02/04 07:29:19;;;;;;;0.90;0.90;;;;;;;5.88;92.23;99574.53;4981153;28;20035;-90
2024/02/04 07:31:44;;;;;;;0.85;0.85;;;;;;;5.90;92.53;99579.13;4985120;28;20034;-89
2024/02/04 07:34:10;;;;;;;0.90;0.90;;;;;;;5.90;92.33;99583.50;4983285;28;20035;-91
2024/02/04 07:36:35;;;;;;;0.90;0.90;;;;;;;5.95;91.72;99582.09;4993599;28;20039;-90
2024/02/04 07:39:04;;;;;;;0.80;0.80;;;;;;;5.94;92.22;99580.25;4994300;28;20092;-89
2024/02/04 07:41:30;;;;;;;0.80;0.80;;;;;;;5.90;92.49;99573.81;4994317;28;20048;-91
2024/02/04 07:43:56;;;;;;;0.90;0.90;;;;;;;5.93;92.78;99577.50;4990826;28;20475;-91
2024/02/04 07:46:22;;;;;;;0.75;0.75;;;;;;;5.95;92.68;99583.81;4981955;28;20061;-91
2024/02/04 07:48:47;;;;;;;0.90;0.90;;;;;;;5.95;92.83;99584.72;4987530;28;20551;-91
2024/02/04 07:51:13;;;;;;;0.80;0.80;;;;;;;6.01;92.51;99581.53;4990965;28;20034;-90
2024/02/04 07:53:38;;;;;;;0.90;0.90;;;;;;;6.04;92.29;99581.72;4988502;28;20050;-90
2024/02/04 07:56:06;;;;;;;0.90;0.90;;;;;;;6.07;92.16;99572.22;4975881;28;20045;-91
2024/02/04 07:58:32;;;;;;;0.80;0.80;;;;;;;6.03;93.21;99566.63;4985879;28;20118;-90
2024/02/04 08:00:58;;;;;;;0.80;0.80;;;;;;;6.08;91.01;99566.09;4994207;28;20106;-89
2024/02/04 08:03:23;;;;;;;0.90;0.90;;;;;;;6.22;90.86;99555.41;4991007;28;20054;-91
2024/02/04 08:05:49;;;;;;;0.90;0.90;;;;;;;6.24;91.34;99562.63;4980011;28;20061;-91
2024/02/04 08:08:15;;;;;;;0.80;0.80;;;;;;;6.33;90.93;99568.47;4983764;28;20010;-89
2024/02/04 08:10:40;;;;;;;0.80;0.80;;;;;;;6.44;88.56;99563.81;5005338;28;20026;-92
2024/02/04 08:13:06;;;;;;;0.80;0.80;;;;;;;6.41;90.11;99553.91;4984880;28;20039;-92
2024/02/04 08:15:32;;;;;;;0.85;0.85;;;;;;;6.42;89.62;99558.44;4980542;28;20473;-92
2024/02/04 08:17:58;;;;;;;0.77;0.77;;;;;;;6.52;88.17;99558.97;4994643;28;20027;-92
2024/02/04 08:20:23;;;;;;;0.80;0.80;;;;;;;6.59;88.17;99559.38;4984455;28;20042;-91
2024/02/04 08:22:49;;;;;;;0.73;0.73;;;;;;;6.56;87.33;99567.16;4971979;28;20118;-93
2024/02/04 08:25:17;;;;;;;0.80;0.80;;;;;;;6.80;84.91;99565.00;4972270;28;20037;-91
2024/02/04 08:27:43;;;;;;;0.80;0.80;;;;;;;6.87;82.40;99564.53;4968646;28;20126;-91
2024/02/04 08:30:11;;;;;;;0.80;0.80;;;;;;;6.98;82.13;99566.88;4984695;28;20064;-90
2024/02/04 08:32:37;;;;;;;0.80;0.80;;;;;;;7.02;82.08;99574.19;4970730;28;20414;-90
2024/02/04 08:35:03;;;;;;;0.90;0.90;;;;;;;6.89;81.39;99570.84;4983766;28;20027;-89
2024/02/04 08:37:29;;;;;;;0.80;0.80;;;;;;;6.89;82.39;99569.94;4971363;28;20051;-90
2024/02/04 08:39:55;;;;;;;0.90;0.90;;;;;;;7.00;81.01;99568.81;4978253;28;20092;-90
2024/02/04 08:42:20;;;;;;;0.80;0.80;;;;;;;7.00;80.53;99567.91;4970127;28;20046;-92
2024/02/04 08:44:46;;;;;;;0.90;0.90;;;;;;;7.00;81.16;99573.22;4979590;28;20031;-92
2024/02/04 08:47:13;;;;;;;0.80;0.80;;;;;;;7.06;80.53;99555.88;4977331;28;20026;-91
2024/02/04 08:49:39;;;;;;;0.80;0.80;;;;;;;7.03;81.16;99568.06;4978613;28;20068;-93
2024/02/04 08:52:04;;;;;;;0.88;0.88;;;;;;;7.02;80.88;99571.53;4974114;28;20063;-91
2024/02/04 08:54:31;;;;;;;0.90;0.90;;;;;;;7.22;80.13;99567.34;4979503;28;20031;-91
2024/02/04 08:56:56;;;;;;;0.90;0.90;;;;;;;7.16;80.54;99565.28;4966301;28;20118;-92
2024/02/04 08:59:24;;;;;;;0.90;0.90;;;;;;;7.16;80.58;99563.53;4978465;28;20113;-91
2024/02/04 09:01:50;;;;;;;0.82;0.82;;;;;;;7.24;80.03;99565.72;4965974;28;20031;-91
2024/02/04 09:04:15;;;;;;;0.80;0.80;;;;;;;7.19;80.54;99562.81;4974041;28;20053;-91
2024/02/04 09:06:41;;;;;;;0.80;0.80;;;;;;;7.13;80.89;99562.44;4975307;28;20035;-91
2024/02/04 09:09:08;;;;;;;0.80;0.80;;;;;;;7.15;80.35;99561.72;4968204;28;20031;-92
2024/02/04 09:11:34;;;;;;;0.98;0.98;;;;;;;7.19;79.91;99557.50;4985389;28;20090;-93
2024/02/04 09:13:59;;;;;;;0.90;0.90;;;;;;;7.30;79.57;99559.00;4983455;28;20039;-91
2024/02/04 09:16:25;;;;;;;0.90;0.90;;;;;;;7.44;79.16;99559.75;4981978;28;20040;-92
2024/02/04 09:18:51;;;;;;;0.80;0.80;;;;;;;7.61;79.39;99555.34;4980873;28;20094;-91
2024/02/04 09:21:16;;;;;;;0.80;0.80;;;;;;;7.58;78.32;99572.03;4990546;28;20553;-91
2024/02/04 09:23:43;;;;;;;0.80;0.80;;;;;;;7.69;77.46;99569.94;4961474;28;20034;-90
2024/02/04 09:26:10;;;;;;;0.80;0.80;;;;;;;7.76;77.42;99574.78;4971436;28;20106;-91
2024/02/04 09:28:37;;;;;;;0.80;0.80;;;;;;;7.73;78.17;99582.56;4982192;28;20484;-91
2024/02/04 09:31:03;;;;;;;0.80;0.80;;;;;;;7.79;77.45;99584.66;4995464;28;20145;-91
2024/02/04 09:33:29;;;;;;;0.75;0.75;;;;;;;7.98;77.18;99569.75;4982196;28;20593;-92
2024/02/04 09:35:54;;;;;;;0.80;0.80;;;;;;;7.92;77.06;99568.53;4982537;28;20341;-91
2024/02/04 09:38:20;;;;;;;0.80;0.80;;;;;;;7.89;76.82;99579.91;4982605;28;20061;-91
2024/02/04 09:40:45;;;;;;;0.80;0.80;;;;;;;8.07;76.71;99573.75;4969920;28;20427;-92
2024/02/04 09:43:12;;;;;;;0.73;0.73;;;;;;;8.06;76.91;99574.56;4992285;28;20149;-92
2024/02/04 09:45:38;;;;;;;0.70;0.70;;;;;;;8.01;77.27;99574.34;4980243;28;20049;-93
2024/02/04 09:48:06;;;;;;;0.70;0.70;;;;;;;8.04;76.94;99568.25;4992732;28;20109;-91
2024/02/04 09:50:31;;;;;;;0.70;0.70;;;;;;;7.82;77.48;99567.13;4978423;28;20042;-92
2024/02/04 09:53:02;;;;;;;0.80;0.80;;;;;;;8.04;76.41;99570.91;4976320;28;20039;-93
2024/02/04 09:55:29;;;;;;;0.70;0.70;;;;;;;8.18;75.46;99559.25;4983781;28;20038;-92
2024/02/04 09:57:57;;;;;;;0.80;0.80;;;;;;;8.26;75.02;99554.34;4982619;28;20465;-92
2024/02/04 10:00:26;;;;;;;0.80;0.80;;;;;;;8.32;74.47;99547.59;4977325;28;20123;-93
2024/02/04 10:02:55;;;;;;;0.70;0.70;;;;;;;8.31;74.59;99542.19;4991588;28;20164;-91
2024/02/04 10:05:21;;;;;;;0.80;0.80;;;;;;;8.42;73.92;99544.59;4982715;28;20084;-92
2024/02/04 10:07:47;;;;;;;0.70;0.70;;;;;;;8.39;73.20;99540.88;4965314;28;20031;-92
2024/02/04 10:10:12;;;;;;;0.80;0.80;;;;;;;8.41;73.98;99537.44;4982517;28;20091;-92
2024/02/04 10:12:41;;;;;;;0.80;0.80;;;;;;;8.43;73.61;99530.47;4982542;28;20086;-93
2024/02/04 10:15:07;;;;;;;0.80;0.80;;;;;;;8.56;72.66;99537.31;4982771;28;20074;-92
2024/02/04 10:17:33;;;;;;;0.80;0.80;;;;;;;8.59;73.37;99528.59;4990218;28;20139;-92
2024/02/04 10:19:59;;;;;;;0.70;0.70;;;;;;;8.48;74.41;99531.63;4972116;28;20437;-92
2024/02/04 10:22:28;;;;;;;0.80;0.80;;;;;;;8.45;73.20;99536.78;4987365;28;20038;-92
2024/02/04 10:24:53;;;;;;;0.70;0.70;;;;;;;8.58;73.66;99537.41;4983914;28;20062;-92
2024/02/04 10:27:20;;;;;;;0.70;0.70;;;;;;;8.43;74.18;99538.47;4980664;28;20130;-92
2024/02/04 10:29:45;;;;;;;0.80;0.80;;;;;;;8.52;73.33;99537.97;4981808;28;20172;-93
2024/02/04 10:32:12;;;;;;;0.63;0.63;;;;;;;8.60;73.49;99538.38;4998627;28;20066;-93
2024/02/04 10:34:38;;;;;;;0.70;0.70;;;;;;;8.60;73.00;99530.41;4963483;28;20547;-93
2024/02/04 10:37:04;;;;;;;0.80;0.80;;;;;;;8.48;73.45;99520.97;4974852;28;20061;-93
2024/02/04 10:39:29;;;;;;;0.70;0.70;;;;;;;8.51;73.71;99529.94;4978376;28;20052;-92
2024/02/04 10:42:01;;;;;;;0.70;0.70;;;;;;;8.62;73.41;99529.63;4970564;28;20575;-92
2024/02/04 10:44:31;;;;;;;0.70;0.70;;;;;;;8.72;72.34;99531.03;4971036;28;20419;-91
2024/02/04 10:46:58;;;;;;;0.60;0.60;;;;;;;8.78;72.54;99536.63;4992051;28;20125;-93
2024/02/04 10:49:26;;;;;;;0.70;0.70;;;;;;;8.76;72.92;99516.09;4974987;28;20518;-92
2024/02/04 10:51:56;;;;;;;0.70;0.70;;;;;;;8.72;73.47;99513.31;4989134;28;20042;-94
2024/02/04 10:54:24;;;;;;;0.60;0.60;;;;;;;8.66;73.55;99514.72;4980270;28;20040;-93
2024/02/04 10:56:56;;;;;;;0.70;0.70;;;;;;;9.09;72.38;99507.06;4975413;28;20058;-92
2024/02/04 10:59:23;;;;;;;0.70;0.70;;;;;;;9.04;73.20;99497.94;4988890;28;20034;-92
2024/02/04 11:01:48;;;;;;;0.80;0.80;;;;;;;9.28;72.78;99502.59;4969818;28;20212;-93
2024/02/04 11:04:16;;;;;;;0.70;0.70;;;;;;;9.40;71.91;99497.88;4964989;28;20054;-92
2024/02/04 11:06:44;;;;;;;0.70;0.70;;;;;;;9.48;71.63;99496.44;4987121;28;20034;-92
2024/02/04 11:09:11;;;;;;;0.70;0.70;;;;;;;9.65;71.52;99502.56;4982735;28;20084;-93
2024/02/04 11:11:38;;;;;;;0.80;0.80;;;;;;;9.79;71.08;99498.75;4980970;28;20077;-93
2024/02/04 11:14:09;;;;;;;0.75;0.75;;;;;;;9.70;71.32;99498.34;4981089;28;20117;-92
2024/02/04 11:17:06;;;;;;;0.70;0.70;;;;;;;9.65;71.38;99499.88;4979818;28;20072;-91
2024/02/04 11:19:58;;;;;;;0.70;0.70;;;;;;;9.73;71.19;99480.75;4976158;28;20042;-91
2024/02/04 11:23:02;;;;;;;0.70;0.70;;;;;;;9.97;69.93;99480.00;4984566;28;20057;-93
2024/02/04 11:25:37;;;;;;;0.70;0.70;;;;;;;9.91;69.83;99483.28;4988282;28;20139;-93
2024/02/04 11:28:04;;;;;;;0.70;0.70;;;;;;;9.93;69.94;99481.63;4995729;28;20099;-93
2024/02/04 11:30:36;;;;;;;0.70;0.70;;;;;;;9.97;69.43;99480.91;5003416;28;20079;-92
2024/02/04 11:33:03;;;;;;;0.70;0.70;;;;;;;9.92;69.67;99479.81;5001281;28;20039;-91
2024/02/04 11:35:30;;;;;;;0.70;0.70;;;;;;;9.85;69.93;99483.03;4991763;28;20050;-93
2024/02/04 11:37:57;;;;;;;0.70;0.70;;;;;;;9.81;70.04;99467.72;4970593;28;20015;-90